Time;durP1;ratioP1;P1;durP2;ratioP2;P2;SDS_P1;SDS_P2;PMS_P1;PMS_P2;Temp;Humidity;BMP_temperature;BMP_pressure;BME280_temperature;BME280_humidity;BME280_pressure;Samples;Min_cycle;Max_cycle;Signal;HPM_P1;HPM_P2
2023/06/20 00:02:16;;;;;;;5.47;5.17;;;26.40;44.80;;;;;;20838;6748;118579;-77
2023/06/20 00:04:51;;;;;;;5.70;5.40;;;26.10;45.30;;;;;;20619;6748;306655;-78
2023/06/20 00:07:27;;;;;;;6.27;5.97;;;26.60;45.00;;;;;;20513;6784;308941;-79
2023/06/20 00:10:03;;;;;;;6.30;6.00;;;26.60;45.00;;;;;;20635;6778;118674;-74
2023/06/20 00:12:40;;;;;;;5.80;5.50;;;26.20;45.50;;;;;;20847;6754;121171;-78
2023/06/20 00:15:15;;;;;;;6.23;5.83;;;26.10;45.50;;;;;;20874;6751;117293;-75
2023/06/20 00:17:51;;;;;;;6.03;5.73;;;25.90;46.00;;;;;;20879;6751;117240;-75
2023/06/20 00:20:27;;;;;;;6.40;6.00;;;25.70;46.40;;;;;;20477;6766;314615;-77
2023/06/20 00:23:07;;;;;;;6.50;6.10;;;26.00;46.60;;;;;;20605;6759;277876;-75
2023/06/20 00:25:37;;;;;;;6.15;5.80;;;26.30;45.90;;;;;;20636;6744;331008;-75
2023/06/20 00:28:16;;;;;;;6.60;6.20;;;26.70;45.70;;;;;;20678;6744;303486;-75
2023/06/20 00:30:49;;;;;;;10.87;7.27;;;26.70;45.80;;;;;;20702;6802;117235;-78
2023/06/20 00:33:25;;;;;;;7.80;7.30;;;26.30;46.80;;;;;;20875;6734;118205;-80
2023/06/20 00:36:00;;;;;;;6.63;6.23;;;25.80;48.70;;;;;;20848;6749;116996;-75
2023/06/20 00:38:36;;;;;;;7.00;6.40;;;25.10;50.10;;;;;;20808;6770;118275;-79
2023/06/20 00:41:11;;;;;;;7.80;7.27;;;24.60;51.20;;;;;;20552;6762;279058;-81
2023/06/20 00:43:50;;;;;;;8.27;7.68;;;24.60;53.60;;;;;;20588;6750;308318;-79
2023/06/20 00:46:26;;;;;;;7.90;7.40;;;24.80;53.90;;;;;;20599;6756;277784;-77
2023/06/20 00:49:03;;;;;;;8.70;8.02;;;24.80;53.60;;;;;;20541;6764;338347;-76
2023/06/20 00:51:37;;;;;;;7.43;6.80;;;24.90;54.30;;;;;;20802;6762;118283;-75
2023/06/20 00:54:13;;;;;;;8.80;8.13;;;24.50;55.50;;;;;;20531;6778;309347;-78
2023/06/20 00:56:49;;;;;;;8.83;8.03;;;24.50;55.50;;;;;;20541;6769;282751;-80
2023/06/20 00:59:25;;;;;;;7.80;7.13;;;24.60;55.40;;;;;;20727;6763;117707;-76
2023/06/20 01:02:03;;;;;;;7.57;6.97;;;24.30;55.10;;;;;;20892;6733;117836;-77
2023/06/20 01:04:39;;;;;;;7.43;6.93;;;24.00;55.50;;;;;;20731;6773;123774;-78
2023/06/20 01:07:13;;;;;;;8.75;7.95;;;23.70;55.90;;;;;;20678;6730;306664;-77
2023/06/20 01:09:52;;;;;;;9.20;8.50;;;23.80;57.30;;;;;;20568;6726;333533;-80
2023/06/20 01:12:37;;;;;;;9.33;8.00;;;24.10;57.20;;;;;;20884;6731;117525;-76
2023/06/20 01:15:26;;;;;;;8.03;7.37;;;23.90;56.60;;;;;;20848;6747;117075;-80
2023/06/20 01:18:05;;;;;;;9.52;8.60;;;23.60;57.00;;;;;;20701;6721;277265;-78
2023/06/20 01:20:44;;;;;;;9.20;8.48;;;23.70;58.30;;;;;;20563;6721;331949;-75
2023/06/20 01:23:19;;;;;;;9.27;8.40;;;24.00;58.20;;;;;;20694;6716;280492;-79
2023/06/20 01:26:05;;;;;;;9.32;8.52;;;24.20;58.20;;;;;;20718;6721;309512;-76
2023/06/20 01:28:59;;;;;;;8.63;7.90;;;24.30;57.60;;;;;;20683;6721;307863;-77
2023/06/20 01:31:34;;;;;;;8.68;7.95;;;24.40;57.10;;;;;;20711;6731;278724;-75
2023/06/20 01:34:19;;;;;;;9.37;8.50;;;24.50;56.80;;;;;;20580;6745;277998;-78
2023/06/20 01:36:58;;;;;;;7.83;7.20;;;24.40;56.90;;;;;;20898;6753;117845;-79
2023/06/20 01:39:38;;;;;;;8.83;7.37;;;24.00;57.00;;;;;;20600;6738;280122;-79
2023/06/20 01:42:14;;;;;;;9.00;8.20;;;24.00;58.00;;;;;;20673;6738;306648;-80
2023/06/20 01:44:49;;;;;;;7.60;7.10;;;24.20;58.30;;;;;;20890;6737;116867;-78
2023/06/20 01:47:25;;;;;;;8.10;7.50;;;23.90;58.10;;;;;;20686;6737;308599;-79
2023/06/20 01:50:01;;;;;;;8.25;7.57;;;24.00;58.60;;;;;;20572;6738;337084;-82
2023/06/20 01:52:37;;;;;;;7.50;7.00;;;24.40;57.50;;;;;;20649;6749;294170;-76
2023/06/20 01:55:12;;;;;;;7.47;6.70;;;24.30;57.40;;;;;;20817;6753;118517;-81
2023/06/20 01:57:48;;;;;;;8.07;7.50;;;24.20;57.60;;;;;;20613;6744;285023;-74
2023/06/20 02:00:26;;;;;;;7.50;6.90;;;24.20;58.30;;;;;;20707;6730;117863;-76
2023/06/20 02:03:00;;;;;;;7.93;7.22;;;24.00;58.00;;;;;;20662;6730;281644;-76
2023/06/20 02:05:36;;;;;;;7.53;6.87;;;24.10;57.60;;;;;;20605;6747;278349;-77
2023/06/20 02:08:12;;;;;;;6.37;5.97;;;24.30;57.40;;;;;;20934;6713;118531;-81
2023/06/20 02:10:48;;;;;;;6.27;5.87;;;24.10;56.80;;;;;;20494;6731;312774;-78
2023/06/20 02:13:23;;;;;;;6.07;5.37;;;24.10;57.30;;;;;;20921;6715;118126;-80
2023/06/20 02:16:02;;;;;;;6.07;5.67;;;24.00;57.20;;;;;;20853;6741;117770;-77
2023/06/20 02:18:35;;;;;;;5.63;5.23;;;23.40;58.30;;;;;;20815;6747;121902;-76
2023/06/20 02:21:11;;;;;;;6.40;6.00;;;23.40;57.70;;;;;;20583;6754;306055;-75
2023/06/20 02:23:46;;;;;;;6.30;5.80;;;23.70;58.40;;;;;;20671;6729;280005;-74
2023/06/20 02:26:22;;;;;;;5.67;5.10;;;24.00;57.80;;;;;;20844;6738;121137;-79
2023/06/20 02:28:57;;;;;;;5.00;4.70;;;23.90;57.50;;;;;;20829;6723;117337;-80
2023/06/20 02:31:33;;;;;;;4.80;4.50;;;23.60;57.90;;;;;;20852;6732;121133;-78
2023/06/20 02:34:09;;;;;;;7.37;4.00;;;23.40;58.10;;;;;;20883;6732;117837;-77
2023/06/20 02:36:44;;;;;;;4.60;4.30;;;23.30;58.30;;;;;;20635;6736;307908;-74
2023/06/20 02:39:20;;;;;;;5.20;4.78;;;23.50;57.10;;;;;;20597;6736;307543;-75
2023/06/20 02:41:57;;;;;;;5.30;4.53;;;23.90;56.50;;;;;;20915;6721;117326;-76
2023/06/20 02:44:31;;;;;;;5.00;4.70;;;23.80;56.60;;;;;;20665;6736;307538;-77
2023/06/20 02:47:14;;;;;;;3.93;3.60;;;23.80;56.50;;;;;;20875;6732;116956;-76
2023/06/20 02:50:16;;;;;;;3.67;3.40;;;23.70;56.40;;;;;;20705;6751;118585;-79
2023/06/20 02:52:51;;;;;;;3.90;3.60;;;23.50;56.90;;;;;;20608;6739;339197;-77
2023/06/20 02:55:31;;;;;;;3.60;3.10;;;23.70;56.70;;;;;;20854;6738;123672;-75
2023/06/20 02:58:07;;;;;;;3.70;3.50;;;23.80;55.40;;;;;;20657;6738;323635;-76
2023/06/20 03:00:42;;;;;;;3.90;3.60;;;23.80;55.40;;;;;;20471;6726;278730;-75
2023/06/20 03:03:18;;;;;;;3.50;3.30;;;24.10;55.40;;;;;;20862;6738;118096;-77
2023/06/20 03:05:56;;;;;;;3.37;3.17;;;23.70;56.10;;;;;;20839;6738;116921;-75
2023/06/20 03:08:30;;;;;;;3.70;3.40;;;23.60;55.90;;;;;;20619;6745;307189;-81
2023/06/20 03:11:05;;;;;;;3.40;3.10;;;23.80;55.40;;;;;;20819;6744;117082;-78
2023/06/20 03:13:41;;;;;;;3.47;3.20;;;23.80;55.70;;;;;;20801;6754;118360;-74
2023/06/20 03:16:17;;;;;;;3.40;3.30;;;23.60;56.10;;;;;;20647;6753;277678;-79
2023/06/20 03:18:53;;;;;;;3.75;3.45;;;24.20;55.50;;;;;;20600;6739;279647;-75
2023/06/20 03:21:29;;;;;;;4.30;3.90;;;24.20;55.50;;;;;;20623;6747;335658;-75
2023/06/20 03:24:04;;;;;;;4.03;3.83;;;24.50;55.60;;;;;;20580;6767;282262;-75
2023/06/20 03:26:40;;;;;;;3.87;3.43;;;24.60;55.40;;;;;;20691;6768;122059;-74
2023/06/20 03:29:15;;;;;;;3.67;3.40;;;24.40;55.60;;;;;;20814;6736;117985;-75
2023/06/20 03:31:51;;;;;;;3.70;3.40;;;24.00;56.00;;;;;;20894;6721;118572;-75
2023/06/20 03:34:27;;;;;;;4.00;3.70;;;23.70;56.40;;;;;;20706;6721;308929;-75
2023/06/20 03:37:02;;;;;;;4.28;3.97;;;23.90;56.30;;;;;;20670;6721;334525;-76
2023/06/20 03:39:39;;;;;;;4.43;4.13;;;24.40;55.60;;;;;;20585;6726;310220;-76
2023/06/20 03:42:14;;;;;;;4.90;4.40;;;24.40;55.00;;;;;;20634;6726;305858;-78
2023/06/20 03:44:50;;;;;;;5.03;4.73;;;24.60;55.00;;;;;;20627;6745;277280;-77
2023/06/20 03:47:25;;;;;;;5.10;4.70;;;24.60;55.00;;;;;;20688;6730;306032;-76
2023/06/20 03:50:01;;;;;;;5.10;4.70;;;24.70;54.80;;;;;;20522;6737;295467;-78
2023/06/20 03:52:37;;;;;;;5.40;5.00;;;24.70;54.70;;;;;;20651;6737;307351;-77
2023/06/20 03:55:12;;;;;;;5.18;4.87;;;24.70;54.80;;;;;;20610;6750;311369;-75
2023/06/20 03:57:48;;;;;;;4.50;4.20;;;24.70;54.90;;;;;;20619;6746;277951;-76
2023/06/20 04:00:23;;;;;;;4.93;4.62;;;24.80;54.30;;;;;;20485;6741;278891;-77
2023/06/20 04:02:59;;;;;;;4.90;4.50;;;24.90;53.90;;;;;;20590;6748;277690;-78
2023/06/20 04:05:35;;;;;;;4.17;3.97;;;25.20;53.60;;;;;;20858;6752;116877;-75
2023/06/20 04:08:10;;;;;;;4.80;4.40;;;25.00;53.90;;;;;;20624;6748;309855;-77
2023/06/20 04:10:46;;;;;;;5.10;4.70;;;25.20;53.70;;;;;;20489;6733;309082;-75
2023/06/20 04:13:22;;;;;;;5.30;4.83;;;25.40;53.10;;;;;;20646;6748;276779;-76
2023/06/20 04:15:57;;;;;;;5.90;5.40;;;25.70;52.60;;;;;;20636;6748;302556;-75
2023/06/20 04:18:33;;;;;;;5.23;4.83;;;25.90;52.20;;;;;;20804;6752;117063;-75
2023/06/20 04:21:09;;;;;;;6.53;6.03;;;25.60;52.50;;;;;;20549;6757;307352;-76
2023/06/20 04:23:45;;;;;;;6.45;5.80;;;25.90;52.30;;;;;;20591;6755;306261;-75
2023/06/20 04:26:21;;;;;;;6.12;5.72;;;26.00;52.00;;;;;;20552;6770;336876;-76
2023/06/20 04:28:57;;;;;;;6.40;5.80;;;26.00;52.00;;;;;;20547;6752;308645;-78
2023/06/20 04:31:33;;;;;;;6.17;5.63;;;26.20;51.70;;;;;;20869;6737;118090;-80
2023/06/20 04:34:08;;;;;;;6.03;5.63;;;26.00;52.10;;;;;;20873;6748;117136;-83
2023/06/20 04:36:44;;;;;;;5.73;5.33;;;25.60;52.80;;;;;;20657;6748;276821;-81
2023/06/20 04:39:19;;;;;;;5.50;5.07;;;25.70;52.70;;;;;;20826;6748;117841;-75
2023/06/20 04:41:55;;;;;;;6.63;6.03;;;25.60;52.90;;;;;;20943;6727;117461;-74
2023/06/20 04:44:33;;;;;;;6.60;6.10;;;25.60;53.00;;;;;;20735;6726;278479;-79
2023/06/20 04:47:07;;;;;;;6.50;6.03;;;25.60;53.00;;;;;;20708;6726;306820;-82
2023/06/20 04:49:43;;;;;;;6.00;5.50;;;25.90;52.60;;;;;;20844;6726;118481;-78
2023/06/20 04:52:19;;;;;;;5.97;5.63;;;25.90;52.50;;;;;;20859;6742;116877;-79
2023/06/20 04:55:01;;;;;;;5.37;5.03;;;25.60;53.00;;;;;;20833;6754;181751;-77
2023/06/20 04:57:30;;;;;;;5.30;5.00;;;25.30;53.80;;;;;;20805;6769;117059;-81
2023/06/20 05:00:12;;;;;;;5.40;5.10;;;25.30;53.70;;;;;;20631;6767;118048;-79
2023/06/20 05:02:46;;;;;;;5.50;5.20;;;25.20;53.90;;;;;;20614;6734;283149;-78
2023/06/20 05:05:21;;;;;;;5.77;5.37;;;25.50;53.50;;;;;;20633;6747;286726;-78
2023/06/20 05:07:56;;;;;;;6.00;5.60;;;26.00;52.90;;;;;;20709;6717;277081;-79
2023/06/20 05:10:32;;;;;;;6.40;6.00;;;26.30;52.20;;;;;;20524;6732;332403;-79
2023/06/20 05:13:08;;;;;;;6.10;5.70;;;26.60;51.80;;;;;;20914;6719;117281;-78
2023/06/20 05:15:43;;;;;;;5.73;5.40;;;26.40;52.00;;;;;;20882;6719;116996;-75
2023/06/20 05:18:19;;;;;;;5.57;5.27;;;26.00;52.50;;;;;;20652;6719;279665;-76
2023/06/20 05:20:55;;;;;;;5.50;5.00;;;26.20;52.30;;;;;;20676;6777;122952;-79
2023/06/20 05:23:31;;;;;;;4.93;4.63;;;26.30;51.70;;;;;;20621;6719;276852;-75
2023/06/20 05:26:06;;;;;;;5.17;4.77;;;26.30;51.70;;;;;;20912;6731;117363;-78
2023/06/20 05:28:42;;;;;;;5.20;4.70;;;26.30;51.80;;;;;;20667;6734;314871;-76
2023/06/20 05:31:17;;;;;;;5.00;4.70;;;26.50;51.00;;;;;;20660;6741;279107;-76
2023/06/20 05:33:54;;;;;;;4.87;4.57;;;26.80;50.30;;;;;;20858;6747;118594;-73
2023/06/20 05:36:29;;;;;;;5.00;4.60;;;26.70;50.50;;;;;;20716;6732;307207;-73
2023/06/20 05:39:04;;;;;;;5.03;4.63;;;26.80;50.20;;;;;;20622;6749;278080;-73
2023/06/20 05:41:42;;;;;;;4.70;4.40;;;27.10;49.60;;;;;;20841;6734;118500;-76
2023/06/20 05:44:16;;;;;;;5.37;5.07;;;26.90;50.00;;;;;;20597;6750;307029;-74
2023/06/20 05:46:53;;;;;;;5.55;4.85;;;27.00;49.80;;;;;;20628;6734;337271;-74
2023/06/20 05:49:27;;;;;;;4.97;4.73;;;27.30;49.80;;;;;;20722;6749;117469;-75
2023/06/20 05:52:03;;;;;;;5.43;5.10;;;27.20;50.00;;;;;;20631;6738;308053;-74
2023/06/20 05:54:41;;;;;;;4.73;4.53;;;27.20;50.30;;;;;;20805;6747;120320;-74
2023/06/20 05:57:15;;;;;;;5.70;5.20;;;27.10;50.10;;;;;;20687;6717;337202;-74
2023/06/20 05:59:51;;;;;;;5.50;5.00;;;27.40;50.40;;;;;;20739;6747;120560;-74
2023/06/20 06:02:29;;;;;;;5.80;5.40;;;27.30;50.50;;;;;;20608;6743;280940;-74
2023/06/20 06:05:02;;;;;;;5.40;5.00;;;27.50;49.80;;;;;;20799;6749;121394;-73
2023/06/20 06:07:38;;;;;;;5.50;5.00;;;27.50;50.00;;;;;;20659;6731;300994;-74
2023/06/20 06:10:14;;;;;;;4.70;4.47;;;28.10;49.80;;;;;;20741;6727;119799;-75
2023/06/20 06:12:49;;;;;;;5.35;4.90;;;28.10;49.70;;;;;;20630;6742;334972;-75
2023/06/20 06:15:25;;;;;;;4.77;4.47;;;28.80;47.50;;;;;;20816;6753;117011;-75
2023/06/20 06:18:00;;;;;;;4.77;4.40;;;29.30;47.80;;;;;;20823;6751;119176;-76
2023/06/20 06:20:36;;;;;;;5.03;4.73;;;29.60;47.80;;;;;;20435;6762;278897;-75
2023/06/20 06:23:12;;;;;;;4.77;4.47;;;31.30;43.10;;;;;;20678;6743;277034;-75
2023/06/20 06:25:48;;;;;;;4.97;4.62;;;31.30;42.80;;;;;;20714;6732;305605;-76
2023/06/20 06:28:24;;;;;;;4.97;4.67;;;32.00;41.50;;;;;;20813;6747;117037;-76
2023/06/20 06:30:59;;;;;;;4.27;3.97;;;32.20;42.00;;;;;;20824;6738;116815;-75
2023/06/20 06:33:36;;;;;;;4.07;3.83;;;32.20;42.40;;;;;;20866;6735;120200;-75
2023/06/20 06:36:11;;;;;;;5.10;4.70;;;32.20;42.70;;;;;;20901;6735;117980;-75
2023/06/20 06:38:49;;;;;;;5.00;4.67;;;32.20;42.70;;;;;;20588;6750;310975;-75
2023/06/20 06:41:22;;;;;;;4.40;4.10;;;32.80;40.40;;;;;;20889;6735;116883;-75
2023/06/20 06:43:58;;;;;;;4.63;4.27;;;33.00;40.70;;;;;;20876;6735;121696;-73
2023/06/20 06:46:34;;;;;;;4.40;4.00;;;33.00;40.90;;;;;;20863;6734;122334;-75
2023/06/20 06:49:11;;;;;;;4.40;4.00;;;33.10;41.00;;;;;;20816;6735;119175;-76
2023/06/20 06:51:47;;;;;;;4.50;4.20;;;33.70;38.00;;;;;;20661;6735;276680;-76
2023/06/20 06:54:23;;;;;;;4.90;4.40;;;33.70;38.10;;;;;;20665;6735;277373;-75
2023/06/20 06:56:58;;;;;;;4.40;4.10;;;34.40;36.90;;;;;;20571;6737;307694;-76
2023/06/20 06:59:34;;;;;;;4.10;3.73;;;34.70;36.90;;;;;;20791;6743;117331;-75
2023/06/20 07:02:10;;;;;;;4.80;4.32;;;34.70;36.90;;;;;;20665;6741;305726;-76
2023/06/20 07:04:46;;;;;;;4.47;4.18;;;35.30;35.90;;;;;;20493;6768;281107;-76
2023/06/20 07:07:22;;;;;;;4.60;4.33;;;35.20;35.80;;;;;;20622;6746;310241;-77
2023/06/20 07:09:57;;;;;;;4.83;4.43;;;35.50;35.40;;;;;;20787;6722;119954;-76
2023/06/20 07:12:33;;;;;;;4.73;4.43;;;35.30;36.20;;;;;;20950;6707;116661;-77
2023/06/20 07:15:09;;;;;;;5.40;4.53;;;34.90;36.60;;;;;;20725;6706;308213;-75
2023/06/20 07:17:44;;;;;;;4.77;4.37;;;35.00;37.10;;;;;;20942;6707;116750;-75
2023/06/20 07:20:20;;;;;;;4.70;4.40;;;34.80;37.40;;;;;;20833;6707;118100;-75
2023/06/20 07:22:56;;;;;;;4.83;4.43;;;34.50;37.80;;;;;;20778;6750;120772;-76
2023/06/20 07:25:31;;;;;;;4.43;4.13;;;34.10;38.00;;;;;;20827;6746;116929;-74
2023/06/20 07:28:07;;;;;;;4.50;4.20;;;33.90;38.50;;;;;;20869;6741;123309;-76
2023/06/20 07:30:42;;;;;;;5.00;4.60;;;33.70;38.60;;;;;;20457;6739;284148;-75
2023/06/20 07:33:18;;;;;;;4.77;4.43;;;33.70;38.70;;;;;;20925;6713;117994;-75
2023/06/20 07:35:54;;;;;;;5.43;4.80;;;33.60;38.30;;;;;;20635;6732;308719;-74
2023/06/20 07:38:29;;;;;;;5.30;4.80;;;33.50;38.00;;;;;;20682;6724;306666;-75
2023/06/20 07:41:08;;;;;;;5.33;5.00;;;33.60;37.40;;;;;;20782;6754;119279;-77
2023/06/20 07:43:43;;;;;;;5.27;4.87;;;33.20;38.40;;;;;;20607;6747;307558;-75
2023/06/20 07:46:18;;;;;;;5.40;4.90;;;33.30;38.40;;;;;;20674;6734;309925;-77
2023/06/20 07:48:53;;;;;;;5.28;4.87;;;33.30;38.30;;;;;;20598;6718;311961;-74
2023/06/20 07:51:33;;;;;;;4.33;4.00;;;33.50;37.90;;;;;;20963;6714;118450;-76
2023/06/20 07:54:08;;;;;;;5.63;4.63;;;33.20;37.90;;;;;;20885;6735;116973;-74
2023/06/20 07:56:43;;;;;;;7.17;5.57;;;32.80;38.60;;;;;;20828;6748;121417;-75
2023/06/20 07:59:19;;;;;;;5.03;4.63;;;32.50;39.00;;;;;;20889;6725;117354;-75
2023/06/20 08:01:54;;;;;;;5.53;5.03;;;32.30;39.40;;;;;;20907;6720;119861;-77
2023/06/20 08:04:30;;;;;;;6.87;4.93;;;32.10;39.70;;;;;;20926;6720;117428;-74
2023/06/20 08:07:06;;;;;;;5.67;5.17;;;32.00;40.00;;;;;;20667;6720;314749;-75
2023/06/20 08:09:41;;;;;;;5.30;4.90;;;32.20;40.00;;;;;;20847;6720;118514;-76
2023/06/20 08:12:17;;;;;;;5.53;5.00;;;32.20;39.70;;;;;;20892;6720;122678;-77
2023/06/20 08:14:52;;;;;;;5.40;4.90;;;32.10;39.70;;;;;;20885;6720;143744;-75
2023/06/20 08:17:28;;;;;;;5.90;5.40;;;32.10;40.00;;;;;;20696;6720;305542;-76
2023/06/20 08:20:14;;;;;;;6.27;5.67;;;32.40;40.70;;;;;;20803;6720;117157;-75
2023/06/20 08:22:40;;;;;;;5.80;5.30;;;32.60;39.80;;;;;;20684;6720;277184;-74
2023/06/20 08:25:15;;;;;;;6.07;5.57;;;32.90;38.30;;;;;;20701;6720;305051;-75
2023/06/20 08:27:51;;;;;;;5.60;5.23;;;33.20;38.50;;;;;;20695;6720;277272;-75
2023/06/20 08:30:26;;;;;;;6.32;5.82;;;33.60;38.40;;;;;;20791;6720;117265;-75
2023/06/20 08:33:02;;;;;;;6.33;4.97;;;33.60;38.10;;;;;;20886;6720;117289;-76
2023/06/20 08:35:37;;;;;;;5.70;5.20;;;33.30;38.30;;;;;;20910;6720;117872;-78
2023/06/20 08:38:13;;;;;;;6.20;5.78;;;33.20;38.50;;;;;;20685;6720;305591;-75
2023/06/20 08:40:49;;;;;;;8.95;5.80;;;33.40;38.50;;;;;;20441;6791;336741;-77
2023/06/20 08:43:24;;;;;;;6.50;5.90;;;33.80;38.80;;;;;;20861;6735;117506;-76
2023/06/20 08:46:00;;;;;;;5.90;5.40;;;33.90;38.90;;;;;;20860;6735;119073;-77
2023/06/20 08:48:36;;;;;;;6.10;5.60;;;33.90;39.20;;;;;;20639;6735;276417;-76
2023/06/20 08:51:12;;;;;;;6.10;5.73;;;33.90;39.20;;;;;;20855;6735;119106;-76
2023/06/20 08:53:47;;;;;;;7.50;5.93;;;33.90;38.50;;;;;;20646;6734;309378;-76
2023/06/20 08:56:23;;;;;;;5.67;5.10;;;34.20;37.60;;;;;;20905;6720;116740;-76
2023/06/20 08:58:58;;;;;;;6.30;5.70;;;34.10;37.60;;;;;;20638;6720;306228;-76
2023/06/20 09:01:35;;;;;;;5.97;5.47;;;34.30;38.70;;;;;;20920;6720;116988;-76
2023/06/20 09:04:11;;;;;;;6.30;5.80;;;34.40;37.70;;;;;;20689;6720;305734;-79
2023/06/20 09:06:49;;;;;;;6.07;5.57;;;34.50;36.30;;;;;;20677;6720;309271;-77
2023/06/20 09:09:21;;;;;;;5.83;5.43;;;34.80;36.30;;;;;;20629;6720;306539;-74
2023/06/20 09:11:58;;;;;;;6.05;5.55;;;35.10;36.40;;;;;;20677;6720;336137;-74
2023/06/20 09:14:32;;;;;;;6.00;5.50;;;35.30;36.00;;;;;;20916;6720;120181;-75
2023/06/20 09:17:07;;;;;;;5.20;4.90;;;35.10;35.60;;;;;;20891;6720;116968;-74
2023/06/20 09:19:43;;;;;;;6.03;5.37;;;34.90;35.90;;;;;;20833;6720;117280;-74
2023/06/20 09:22:19;;;;;;;5.80;5.30;;;34.70;36.00;;;;;;20677;6720;305697;-75
2023/06/20 09:24:54;;;;;;;6.10;5.50;;;34.90;35.40;;;;;;20680;6720;338423;-74
2023/06/20 09:27:33;;;;;;;5.73;5.13;;;35.20;35.70;;;;;;20904;6720;116873;-74
2023/06/20 09:30:09;;;;;;;5.40;4.90;;;35.30;35.40;;;;;;20798;6720;117351;-75
2023/06/20 09:32:44;;;;;;;6.03;5.40;;;35.20;34.80;;;;;;20638;6735;305934;-74
2023/06/20 09:35:20;;;;;;;6.00;5.50;;;35.40;34.30;;;;;;20706;6720;276455;-74
2023/06/20 09:37:56;;;;;;;5.60;5.00;;;36.00;32.80;;;;;;20652;6735;277546;-74
2023/06/20 09:40:32;;;;;;;5.35;4.90;;;36.00;32.70;;;;;;20517;6735;280553;-74
2023/06/20 09:43:07;;;;;;;5.72;5.22;;;36.20;32.60;;;;;;20682;6728;277504;-75
2023/06/20 09:45:43;;;;;;;6.78;5.20;;;36.40;32.50;;;;;;20675;6732;276275;-74
2023/06/20 09:48:19;;;;;;;5.40;5.00;;;36.50;32.40;;;;;;20902;6726;116874;-74
2023/06/20 09:50:54;;;;;;;5.73;5.27;;;36.30;32.50;;;;;;20636;6797;117770;-73
2023/06/20 09:53:44;;;;;;;5.73;5.17;;;35.80;33.10;;;;;;20819;6744;116959;-75
2023/06/20 09:56:19;;;;;;;5.57;5.07;;;35.80;33.00;;;;;;20600;6749;307525;-75
2023/06/20 09:58:55;;;;;;;5.62;5.03;;;35.90;31.40;;;;;;20618;6747;312046;-75
2023/06/20 10:01:30;;;;;;;6.30;5.23;;;36.20;31.60;;;;;;20668;6732;308222;-75
2023/06/20 10:04:06;;;;;;;5.93;5.00;;;36.50;31.70;;;;;;20644;6734;276806;-75
2023/06/20 10:06:41;;;;;;;5.90;5.20;;;36.70;29.60;;;;;;20609;6748;293148;-77
2023/06/20 10:09:19;;;;;;;5.20;4.80;;;37.10;30.60;;;;;;20524;6749;310927;-80
2023/06/20 10:11:56;;;;;;;5.60;5.10;;;37.00;30.50;;;;;;20640;6734;302464;-77
2023/06/20 10:14:33;;;;;;;5.37;5.00;;;37.30;30.00;;;;;;20649;6734;309354;-79
2023/06/20 10:17:08;;;;;;;5.13;4.63;;;37.40;29.00;;;;;;20655;6734;309807;-80
2023/06/20 10:19:47;;;;;;;5.27;4.83;;;37.50;28.20;;;;;;20542;6734;281690;-79
2023/06/20 10:22:36;;;;;;;5.10;4.80;;;37.50;28.20;;;;;;20892;6719;116905;-78
2023/06/20 10:25:11;;;;;;;5.50;5.00;;;37.20;29.20;;;;;;20697;6720;335477;-75
2023/06/20 10:28:07;;;;;;;5.40;4.90;;;37.20;28.50;;;;;;20679;6720;341550;-77
2023/06/20 10:30:46;;;;;;;5.43;4.90;;;37.30;28.90;;;;;;20657;6735;127148;-75
2023/06/20 10:33:39;;;;;;;7.43;4.80;;;37.00;29.00;;;;;;20867;6735;117233;-76
2023/06/20 10:36:15;;;;;;;5.60;5.20;;;36.70;29.00;;;;;;20689;6721;311822;-76
2023/06/20 10:38:51;;;;;;;5.47;4.97;;;36.70;28.80;;;;;;20518;6757;312557;-75
2023/06/20 10:41:32;;;;;;;5.67;5.10;;;36.80;28.70;;;;;;20652;6732;306679;-75
2023/06/20 10:44:02;;;;;;;5.17;4.63;;;36.90;28.20;;;;;;20866;6751;116852;-75
2023/06/20 10:46:38;;;;;;;5.25;4.85;;;36.70;28.70;;;;;;20616;6754;306195;-76
2023/06/20 10:49:13;;;;;;;5.20;4.80;;;36.60;28.30;;;;;;20570;6739;341056;-75
2023/06/20 10:51:49;;;;;;;5.82;5.25;;;36.70;28.80;;;;;;20573;6754;358351;-75
2023/06/20 10:54:24;;;;;;;5.18;4.78;;;36.90;28.70;;;;;;20648;6734;309142;-75
2023/06/20 10:57:01;;;;;;;5.87;4.87;;;37.10;28.20;;;;;;20639;6733;335269;-75
2023/06/20 10:59:36;;;;;;;5.07;4.50;;;37.10;28.20;;;;;;20784;6737;117739;-75
2023/06/20 11:02:12;;;;;;;5.27;4.83;;;36.90;28.50;;;;;;20916;6719;116977;-75
2023/06/20 11:04:48;;;;;;;5.20;4.80;;;36.60;28.60;;;;;;20798;6745;118306;-77
2023/06/20 11:07:23;;;;;;;6.10;4.70;;;36.20;29.00;;;;;;20912;6734;116830;-76
2023/06/20 11:09:59;;;;;;;5.30;4.90;;;35.90;28.80;;;;;;20763;6726;117823;-76
2023/06/20 11:12:43;;;;;;;5.57;5.17;;;35.70;29.80;;;;;;20710;6720;276488;-77
2023/06/20 11:15:27;;;;;;;5.93;5.43;;;35.90;29.40;;;;;;20693;6721;306099;-82
2023/06/20 11:18:02;;;;;;;5.70;5.10;;;36.20;28.80;;;;;;20644;6734;306599;-80
2023/06/20 11:20:42;;;;;;;5.40;5.00;;;36.50;28.90;;;;;;20465;6726;312063;-77
2023/06/20 11:23:18;;;;;;;5.80;5.30;;;36.70;28.10;;;;;;20878;6736;121791;-76
2023/06/20 11:25:53;;;;;;;5.90;5.40;;;36.60;28.30;;;;;;20598;6749;305745;-77
2023/06/20 11:28:31;;;;;;;5.47;4.90;;;36.50;28.60;;;;;;20857;6736;116965;-77
2023/06/20 11:31:10;;;;;;;6.57;5.37;;;36.40;28.50;;;;;;20603;6734;308202;-77
2023/06/20 11:33:44;;;;;;;5.30;4.90;;;36.60;28.50;;;;;;20833;6734;118210;-77
2023/06/20 11:36:21;;;;;;;6.10;4.90;;;36.60;28.40;;;;;;20688;6721;306693;-76
2023/06/20 11:38:56;;;;;;;7.40;5.00;;;36.70;28.40;;;;;;20764;6749;120466;-78
2023/06/20 11:41:32;;;;;;;5.53;4.80;;;36.70;28.10;;;;;;20693;6726;336745;-77
2023/06/20 11:44:21;;;;;;;6.90;5.05;;;36.80;28.10;;;;;;20616;6752;278131;-77
2023/06/20 11:46:57;;;;;;;5.30;4.87;;;37.10;27.50;;;;;;20840;6741;120778;-76
2023/06/20 11:49:35;;;;;;;6.37;5.00;;;37.00;27.40;;;;;;20463;6759;344260;-77
2023/06/20 11:52:08;;;;;;;7.25;5.05;;;37.10;26.90;;;;;;20664;6735;280006;-76
2023/06/20 11:54:51;;;;;;;8.10;5.57;;;37.10;26.90;;;;;;20652;6735;306962;-77
2023/06/20 11:57:26;;;;;;;6.73;4.80;;;37.30;26.60;;;;;;20873;6736;117405;-77
2023/06/20 12:00:14;;;;;;;6.73;4.93;;;37.00;26.90;;;;;;20457;6748;313599;-76
2023/06/20 12:02:40;;;;;;;5.30;4.83;;;37.00;26.20;;;;;;20868;6721;126592;-77
2023/06/20 12:05:16;;;;;;;8.80;5.20;;;36.80;26.90;;;;;;20690;6726;306049;-77
2023/06/20 12:07:52;;;;;;;6.68;5.45;;;36.90;27.90;;;;;;20665;6784;339548;-77
2023/06/20 12:10:28;;;;;;;5.73;4.97;;;37.20;26.70;;;;;;20787;6709;117302;-79
2023/06/20 12:13:05;;;;;;;5.37;4.90;;;37.20;27.10;;;;;;20924;6719;118175;-79
2023/06/20 12:15:41;;;;;;;9.37;4.93;;;37.00;27.30;;;;;;20932;6727;117308;-78
2023/06/20 12:18:18;;;;;;;6.93;5.03;;;36.90;27.80;;;;;;20894;6746;117017;-76
2023/06/20 12:20:53;;;;;;;6.50;4.80;;;36.70;27.80;;;;;;20705;6796;118223;-77
2023/06/20 12:23:30;;;;;;;7.67;5.73;;;36.60;27.80;;;;;;20632;6748;279444;-76
2023/06/20 12:26:06;;;;;;;8.13;5.40;;;36.80;27.70;;;;;;20763;6722;305358;-78
2023/06/20 12:28:41;;;;;;;6.80;5.20;;;37.10;27.30;;;;;;20919;6722;117617;-77
2023/06/20 12:31:17;;;;;;;7.37;5.20;;;37.00;27.50;;;;;;20964;6726;118762;-77
2023/06/20 12:33:53;;;;;;;7.90;5.30;;;36.70;27.60;;;;;;20933;6731;117020;-77
2023/06/20 12:36:28;;;;;;;6.10;5.53;;;36.60;27.70;;;;;;20684;6731;276558;-78
2023/06/20 12:39:04;;;;;;;5.67;5.27;;;36.70;27.50;;;;;;20841;6740;119179;-79
2023/06/20 12:41:39;;;;;;;7.07;5.87;;;36.60;27.40;;;;;;20622;6749;295758;-78
2023/06/20 12:44:15;;;;;;;8.00;5.80;;;36.70;27.60;;;;;;20580;6760;310495;-78
2023/06/20 12:46:51;;;;;;;7.27;5.67;;;36.90;27.00;;;;;;20827;6750;119901;-78
2023/06/20 12:49:26;;;;;;;6.30;5.70;;;36.80;27.10;;;;;;20768;6751;118849;-78
2023/06/20 12:52:02;;;;;;;5.73;5.03;;;36.50;27.50;;;;;;20848;6751;118760;-77
2023/06/20 12:54:38;;;;;;;7.15;5.35;;;36.00;28.00;;;;;;20871;6744;117341;-78
2023/06/20 12:57:14;;;;;;;6.75;5.87;;;36.00;28.00;;;;;;20710;6730;305806;-80
2023/06/20 12:59:49;;;;;;;6.37;5.45;;;36.20;28.50;;;;;;20604;6730;337368;-79
2023/06/20 13:02:25;;;;;;;11.63;5.80;;;36.50;27.80;;;;;;20935;6725;118477;-79
2023/06/20 13:05:01;;;;;;;6.20;5.50;;;36.50;28.10;;;;;;20898;6725;118946;-79
2023/06/20 13:07:36;;;;;;;7.33;6.23;;;36.20;28.50;;;;;;20725;6725;282620;-79
2023/06/20 13:10:12;;;;;;;6.27;5.67;;;36.30;28.30;;;;;;20580;6725;309247;-79
2023/06/20 13:12:48;;;;;;;6.40;5.50;;;36.60;27.80;;;;;;20883;6725;118512;-78
2023/06/20 13:15:24;;;;;;;9.45;6.30;;;36.40;27.60;;;;;;20716;6721;340596;-79
2023/06/20 13:18:01;;;;;;;6.83;5.97;;;36.30;28.40;;;;;;20681;6725;306002;-79
2023/06/20 13:20:35;;;;;;;8.07;6.13;;;36.50;27.60;;;;;;20633;6707;279652;-79
2023/06/20 13:23:10;;;;;;;8.53;5.90;;;36.60;27.40;;;;;;20946;6707;116868;-80